sensor_id;sensor_type;location;lat;lon;timestamp;pressure;altitude;pressure_sealevel;temperature;humidity
13604;BME280;24578;48.264;11.436;2023-04-29T00:00:17;95850.09;;;8.87;100.00
13604;BME280;24578;48.264;11.436;2023-04-29T00:03:39;95837.78;;;8.90;100.00
13604;BME280;24578;48.264;11.436;2023-04-29T00:07:00;95838.72;;;8.89;100.00
13604;BME280;24578;48.264;11.436;2023-04-29T00:10:22;95834.00;;;8.83;100.00
13604;BME280;24578;48.264;11.436;2023-04-29T00:13:44;95833.16;;;8.82;100.00
13604;BME280;24578;48.264;11.436;2023-04-29T00:17:06;95833.50;;;8.78;100.00
13604;BME280;24578;48.264;11.436;2023-04-29T00:20:28;95844.97;;;8.74;100.00
13604;BME280;24578;48.264;11.436;2023-04-29T00:23:50;95831.47;;;8.70;100.00
13604;BME280;24578;48.264;11.436;2023-04-29T00:27:12;95832.63;;;8.66;100.00
13604;BME280;24578;48.264;11.436;2023-04-29T00:30:33;95825.94;;;8.63;100.00
13604;BME280;24578;48.264;11.436;2023-04-29T00:33:55;95827.44;;;8.66;100.00
13604;BME280;24578;48.264;11.436;2023-04-29T00:37:18;95833.53;;;8.65;100.00
13604;BME280;24578;48.264;11.436;2023-04-29T00:40:40;95831.28;;;8.60;100.00
13604;BME280;24578;48.264;11.436;2023-04-29T00:44:02;95834.25;;;8.67;100.00
13604;BME280;24578;48.264;11.436;2023-04-29T00:47:23;95826.22;;;8.72;100.00
13604;BME280;24578;48.264;11.436;2023-04-29T00:50:45;95832.84;;;8.63;100.00
13604;BME280;24578;48.264;11.436;2023-04-29T00:54:08;95825.81;;;8.65;100.00
13604;BME280;24578;48.264;11.436;2023-04-29T00:57:32;95814.69;;;8.64;100.00
13604;BME280;24578;48.264;11.436;2023-04-29T01:00:55;95811.75;;;8.69;100.00
13604;BME280;24578;48.264;11.436;2023-04-29T01:04:17;95816.53;;;8.62;100.00
13604;BME280;24578;48.264;11.436;2023-04-29T01:11:11;95820.97;;;8.60;100.00
13604;BME280;24578;48.264;11.436;2023-04-29T01:14:38;95820.25;;;8.58;100.00
13604;BME280;24578;48.264;11.436;2023-04-29T01:21:24;95826.97;;;8.61;100.00
13604;BME280;24578;48.264;11.436;2023-04-29T01:24:47;95819.56;;;8.56;100.00
13604;BME280;24578;48.264;11.436;2023-04-29T01:28:37;95824.00;;;8.54;100.00
13604;BME280;24578;48.264;11.436;2023-04-29T01:32:04;95824.72;;;8.43;100.00
13604;BME280;24578;48.264;11.436;2023-04-29T01:43:03;95829.09;;;8.30;100.00
13604;BME280;24578;48.264;11.436;2023-04-29T01:46:29;95822.78;;;8.34;100.00
13604;BME280;24578;48.264;11.436;2023-04-29T01:49:51;95828.56;;;8.37;100.00
13604;BME280;24578;48.264;11.436;2023-04-29T01:53:13;95821.16;;;8.33;100.00
13604;BME280;24578;48.264;11.436;2023-04-29T01:56:35;95822.28;;;8.29;100.00
13604;BME280;24578;48.264;11.436;2023-04-29T01:59:57;95827.31;;;8.30;100.00
13604;BME280;24578;48.264;11.436;2023-04-29T02:03:18;95824.88;;;8.29;100.00
13604;BME280;24578;48.264;11.436;2023-04-29T02:06:40;95820.91;;;8.36;100.00
13604;BME280;24578;48.264;11.436;2023-04-29T02:10:02;95824.53;;;8.33;100.00
13604;BME280;24578;48.264;11.436;2023-04-29T02:13:24;95823.63;;;8.34;100.00
13604;BME280;24578;48.264;11.436;2023-04-29T02:16:46;95824.00;;;8.41;100.00
13604;BME280;24578;48.264;11.436;2023-04-29T02:20:08;95821.63;;;8.38;100.00
13604;BME280;24578;48.264;11.436;2023-04-29T02:23:30;95820.72;;;8.39;100.00
13604;BME280;24578;48.264;11.436;2023-04-29T02:26:52;95821.22;;;8.44;100.00
13604;BME280;24578;48.264;11.436;2023-04-29T02:30:14;95815.94;;;8.46;100.00
13604;BME280;24578;48.264;11.436;2023-04-29T02:33:36;95827.91;;;8.47;100.00
13604;BME280;24578;48.264;11.436;2023-04-29T02:36:58;95825.03;;;8.51;100.00
13604;BME280;24578;48.264;11.436;2023-04-29T02:40:19;95824.72;;;8.56;100.00
13604;BME280;24578;48.264;11.436;2023-04-29T02:43:41;95825.53;;;8.57;100.00
13604;BME280;24578;48.264;11.436;2023-04-29T02:47:04;95820.03;;;8.61;100.00
13604;BME280;24578;48.264;11.436;2023-04-29T02:50:26;95822.28;;;8.66;100.00
13604;BME280;24578;48.264;11.436;2023-04-29T02:53:47;95827.75;;;8.74;100.00
13604;BME280;24578;48.264;11.436;2023-04-29T02:57:09;95822.41;;;8.89;100.00
13604;BME280;24578;48.264;11.436;2023-04-29T03:00:31;95823.72;;;8.94;100.00
13604;BME280;24578;48.264;11.436;2023-04-29T03:03:53;95831.25;;;8.97;100.00
13604;BME280;24578;48.264;11.436;2023-04-29T03:07:15;95825.03;;;9.00;100.00
13604;BME280;24578;48.264;11.436;2023-04-29T03:10:37;95830.31;;;8.98;100.00
13604;BME280;24578;48.264;11.436;2023-04-29T03:14:00;95825.88;;;9.01;100.00
13604;BME280;24578;48.264;11.436;2023-04-29T03:17:21;95827.28;;;9.05;100.00
13604;BME280;24578;48.264;11.436;2023-04-29T03:20:43;95828.34;;;9.02;100.00
13604;BME280;24578;48.264;11.436;2023-04-29T03:24:05;95821.66;;;8.99;100.00
13604;BME280;24578;48.264;11.436;2023-04-29T03:27:27;95822.59;;;8.98;100.00
13604;BME280;24578;48.264;11.436;2023-04-29T03:30:48;95826.19;;;8.96;100.00
13604;BME280;24578;48.264;11.436;2023-04-29T03:34:10;95817.75;;;8.94;100.00
13604;BME280;24578;48.264;11.436;2023-04-29T03:37:32;95815.84;;;8.96;100.00
13604;BME280;24578;48.264;11.436;2023-04-29T03:40:54;95822.09;;;8.93;100.00
13604;BME280;24578;48.264;11.436;2023-04-29T03:44:15;95825.00;;;8.89;100.00
13604;BME280;24578;48.264;11.436;2023-04-29T03:47:37;95821.56;;;8.88;100.00
13604;BME280;24578;48.264;11.436;2023-04-29T03:50:59;95823.34;;;8.88;100.00
13604;BME280;24578;48.264;11.436;2023-04-29T03:54:21;95828.38;;;8.89;100.00
13604;BME280;24578;48.264;11.436;2023-04-29T03:57:43;95819.63;;;8.92;100.00
13604;BME280;24578;48.264;11.436;2023-04-29T04:01:04;95829.00;;;8.93;100.00
13604;BME280;24578;48.264;11.436;2023-04-29T04:04:26;95825.38;;;8.95;100.00
13604;BME280;24578;48.264;11.436;2023-04-29T04:07:48;95824.88;;;8.90;100.00
13604;BME280;24578;48.264;11.436;2023-04-29T04:11:10;95830.88;;;8.91;100.00
13604;BME280;24578;48.264;11.436;2023-04-29T04:14:31;95825.13;;;8.87;100.00
13604;BME280;24578;48.264;11.436;2023-04-29T04:17:53;95831.69;;;8.91;100.00
13604;BME280;24578;48.264;11.436;2023-04-29T04:21:15;95836.19;;;9.01;100.00
13604;BME280;24578;48.264;11.436;2023-04-29T04:24:36;95829.66;;;9.08;100.00
13604;BME280;24578;48.264;11.436;2023-04-29T04:27:58;95840.25;;;9.16;100.00
13604;BME280;24578;48.264;11.436;2023-04-29T04:31:20;95854.94;;;9.27;100.00
13604;BME280;24578;48.264;11.436;2023-04-29T04:34:42;95842.19;;;9.37;100.00
13604;BME280;24578;48.264;11.436;2023-04-29T04:38:03;95853.38;;;9.49;100.00
13604;BME280;24578;48.264;11.436;2023-04-29T04:41:25;95850.81;;;9.60;100.00
13604;BME280;24578;48.264;11.436;2023-04-29T04:44:47;95856.69;;;9.73;100.00
13604;BME280;24578;48.264;11.436;2023-04-29T04:48:09;95857.31;;;9.88;100.00
13604;BME280;24578;48.264;11.436;2023-04-29T04:51:31;95854.16;;;10.08;100.00
13604;BME280;24578;48.264;11.436;2023-04-29T04:54:52;95859.56;;;10.27;100.00
13604;BME280;24578;48.264;11.436;2023-04-29T04:58:14;95856.19;;;10.38;100.00
13604;BME280;24578;48.264;11.436;2023-04-29T05:01:36;95853.00;;;10.46;100.00
13604;BME280;24578;48.264;11.436;2023-04-29T05:04:58;95858.16;;;10.57;100.00
13604;BME280;24578;48.264;11.436;2023-04-29T05:08:20;95866.59;;;10.82;100.00
13604;BME280;24578;48.264;11.436;2023-04-29T05:11:41;95859.81;;;11.35;100.00
13604;BME280;24578;48.264;11.436;2023-04-29T05:15:03;95866.72;;;12.09;100.00
13604;BME280;24578;48.264;11.436;2023-04-29T05:18:25;95861.06;;;12.66;100.00
13604;BME280;24578;48.264;11.436;2023-04-29T05:21:47;95868.91;;;13.15;100.00
13604;BME280;24578;48.264;11.436;2023-04-29T05:25:09;95871.66;;;13.23;100.00
13604;BME280;24578;48.264;11.436;2023-04-29T05:28:30;95875.28;;;12.72;100.00
13604;BME280;24578;48.264;11.436;2023-04-29T05:31:52;95881.03;;;12.03;100.00
13604;BME280;24578;48.264;11.436;2023-04-29T05:35:14;95886.50;;;11.68;100.00
13604;BME280;24578;48.264;11.436;2023-04-29T05:38:36;95890.63;;;11.70;100.00
13604;BME280;24578;48.264;11.436;2023-04-29T05:41:57;95898.16;;;11.73;100.00
13604;BME280;24578;48.264;11.436;2023-04-29T05:45:19;95892.09;;;11.84;100.00
13604;BME280;24578;48.264;11.436;2023-04-29T05:48:41;95898.84;;;11.97;100.00
13604;BME280;24578;48.264;11.436;2023-04-29T05:52:03;95900.25;;;12.01;100.00
13604;BME280;24578;48.264;11.436;2023-04-29T05:55:26;95908.91;;;12.11;100.00
13604;BME280;24578;48.264;11.436;2023-04-29T05:58:48;95907.47;;;12.18;100.00
13604;BME280;24578;48.264;11.436;2023-04-29T06:02:10;95912.41;;;12.22;100.00
13604;BME280;24578;48.264;11.436;2023-04-29T06:05:32;95915.81;;;12.22;100.00
13604;BME280;24578;48.264;11.436;2023-04-29T06:08:54;95922.25;;;12.28;100.00
13604;BME280;24578;48.264;11.436;2023-04-29T06:12:16;95924.69;;;12.20;100.00
13604;BME280;24578;48.264;11.436;2023-04-29T06:15:38;95919.09;;;12.24;100.00
13604;BME280;24578;48.264;11.436;2023-04-29T06:19:00;95922.88;;;12.20;100.00
13604;BME280;24578;48.264;11.436;2023-04-29T06:22:22;95918.59;;;12.40;100.00
13604;BME280;24578;48.264;11.436;2023-04-29T06:25:44;95932.19;;;12.54;100.00
13604;BME280;24578;48.264;11.436;2023-04-29T06:29:05;95939.34;;;12.71;100.00
13604;BME280;24578;48.264;11.436;2023-04-29T06:32:27;95936.75;;;13.22;100.00
13604;BME280;24578;48.264;11.436;2023-04-29T06:35:49;95938.84;;;13.48;100.00
13604;BME280;24578;48.264;11.436;2023-04-29T06:39:11;95940.09;;;13.44;100.00
13604;BME280;24578;48.264;11.436;2023-04-29T06:42:33;95931.03;;;13.97;100.00
13604;BME280;24578;48.264;11.436;2023-04-29T06:45:55;95928.31;;;14.46;100.00
13604;BME280;24578;48.264;11.436;2023-04-29T06:49:17;95931.06;;;14.82;100.00
13604;BME280;24578;48.264;11.436;2023-04-29T06:52:39;95935.19;;;15.03;100.00
13604;BME280;24578;48.264;11.436;2023-04-29T06:56:00;95933.59;;;15.02;100.00
13604;BME280;24578;48.264;11.436;2023-04-29T06:59:22;95930.97;;;16.37;100.00
13604;BME280;24578;48.264;11.436;2023-04-29T07:02:44;95926.97;;;18.44;100.00
13604;BME280;24578;48.264;11.436;2023-04-29T07:06:06;95929.75;;;17.93;100.00
13604;BME280;24578;48.264;11.436;2023-04-29T07:09:28;95936.91;;;17.33;100.00
13604;BME280;24578;48.264;11.436;2023-04-29T07:12:50;95933.88;;;18.29;100.00
13604;BME280;24578;48.264;11.436;2023-04-29T07:16:15;95925.31;;;20.01;100.00
13604;BME280;24578;48.264;11.436;2023-04-29T07:19:39;95921.41;;;19.73;100.00
13604;BME280;24578;48.264;11.436;2023-04-29T07:23:01;95920.03;;;20.69;100.00
13604;BME280;24578;48.264;11.436;2023-04-29T07:26:23;95920.03;;;20.69;100.00
13604;BME280;24578;48.264;11.436;2023-04-29T07:29:45;95916.56;;;20.98;100.00
13604;BME280;24578;48.264;11.436;2023-04-29T07:33:06;95919.78;;;21.52;100.00
13604;BME280;24578;48.264;11.436;2023-04-29T07:36:28;95922.31;;;21.82;100.00
13604;BME280;24578;48.264;11.436;2023-04-29T07:39:50;95940.22;;;20.23;100.00
13604;BME280;24578;48.264;11.436;2023-04-29T07:43:12;95930.16;;;20.72;100.00
13604;BME280;24578;48.264;11.436;2023-04-29T07:46:34;95926.00;;;20.93;100.00
13604;BME280;24578;48.264;11.436;2023-04-29T07:49:55;95937.44;;;19.78;100.00
13604;BME280;24578;48.264;11.436;2023-04-29T07:53:17;95943.25;;;18.71;100.00
13604;BME280;24578;48.264;11.436;2023-04-29T07:56:39;95943.38;;;19.49;100.00
13604;BME280;24578;48.264;11.436;2023-04-29T08:00:01;95933.44;;;20.74;100.00
13604;BME280;24578;48.264;11.436;2023-04-29T08:03:23;95934.03;;;23.55;100.00
13604;BME280;24578;48.264;11.436;2023-04-29T08:06:45;95926.47;;;24.93;100.00
13604;BME280;24578;48.264;11.436;2023-04-29T08:10:07;95925.00;;;25.50;89.61
13604;BME280;24578;48.264;11.436;2023-04-29T08:13:29;95931.75;;;23.32;95.70
13604;BME280;24578;48.264;11.436;2023-04-29T08:16:51;95927.63;;;22.11;100.00
13604;BME280;24578;48.264;11.436;2023-04-29T08:20:13;95930.38;;;22.02;100.00
13604;BME280;24578;48.264;11.436;2023-04-29T08:23:38;95917.94;;;24.85;89.73
13604;BME280;24578;48.264;11.436;2023-04-29T08:27:00;95913.94;;;25.60;72.67
13604;BME280;24578;48.264;11.436;2023-04-29T08:30:22;95918.84;;;24.31;77.48
13604;BME280;24578;48.264;11.436;2023-04-29T08:33:44;95926.41;;;23.19;82.37
13604;BME280;24578;48.264;11.436;2023-04-29T08:37:07;95930.22;;;21.82;91.71
13604;BME280;24578;48.264;11.436;2023-04-29T08:40:29;95937.25;;;20.87;100.00
13604;BME280;24578;48.264;11.436;2023-04-29T08:43:51;95934.88;;;19.70;100.00
13604;BME280;24578;48.264;11.436;2023-04-29T08:47:14;95934.75;;;19.40;100.00
13604;BME280;24578;48.264;11.436;2023-04-29T08:50:40;95942.69;;;18.44;100.00
13604;BME280;24578;48.264;11.436;2023-04-29T08:54:02;95928.50;;;20.11;100.00
13604;BME280;24578;48.264;11.436;2023-04-29T08:57:27;95919.59;;;23.45;94.55
13604;BME280;24578;48.264;11.436;2023-04-29T09:00:50;95916.66;;;25.01;71.10
13604;BME280;24578;48.264;11.436;2023-04-29T09:08:03;95913.13;;;26.60;58.01
13604;BME280;24578;48.264;11.436;2023-04-29T09:11:27;95915.50;;;27.36;52.96
13604;BME280;24578;48.264;11.436;2023-04-29T09:14:50;95906.44;;;27.26;52.09
13604;BME280;24578;48.264;11.436;2023-04-29T09:18:47;95911.53;;;28.12;46.99
13604;BME280;24578;48.264;11.436;2023-04-29T09:22:10;95895.91;;;28.75;41.27
13604;BME280;24578;48.264;11.436;2023-04-29T09:25:32;95885.97;;;29.11;41.10
13604;BME280;24578;48.264;11.436;2023-04-29T09:32:30;95907.50;;;27.36;44.06
13604;BME280;24578;48.264;11.436;2023-04-29T09:35:52;95932.88;;;24.25;55.57
13604;BME280;24578;48.264;11.436;2023-04-29T09:39:16;95938.50;;;22.58;63.57
13604;BME280;24578;48.264;11.436;2023-04-29T09:42:41;95934.56;;;22.18;70.07
13604;BME280;24578;48.264;11.436;2023-04-29T09:46:04;95928.16;;;24.68;58.74
13604;BME280;24578;48.264;11.436;2023-04-29T09:49:28;95924.78;;;25.83;49.82
13604;BME280;24578;48.264;11.436;2023-04-29T09:52:50;95924.34;;;27.00;46.23
13604;BME280;24578;48.264;11.436;2023-04-29T09:56:12;95918.13;;;27.55;44.64
13604;BME280;24578;48.264;11.436;2023-04-29T09:59:36;95917.72;;;27.21;43.52
13604;BME280;24578;48.264;11.436;2023-04-29T10:03:00;95920.53;;;27.26;44.86
13604;BME280;24578;48.264;11.436;2023-04-29T10:06:24;95922.16;;;27.27;45.29
13604;BME280;24578;48.264;11.436;2023-04-29T10:09:46;95918.25;;;28.26;44.25
13604;BME280;24578;48.264;11.436;2023-04-29T10:13:09;95920.56;;;28.82;40.68
13604;BME280;24578;48.264;11.436;2023-04-29T10:16:33;95914.34;;;27.44;43.21
13604;BME280;24578;48.264;11.436;2023-04-29T10:20:03;95913.69;;;27.79;41.92
13604;BME280;24578;48.264;11.436;2023-04-29T10:23:26;95917.72;;;27.21;44.00
13604;BME280;24578;48.264;11.436;2023-04-29T10:26:50;95920.97;;;26.93;44.57
13604;BME280;24578;48.264;11.436;2023-04-29T10:30:15;95918.69;;;25.83;43.45
13604;BME280;24578;48.264;11.436;2023-04-29T10:33:41;95917.06;;;25.82;48.04
13604;BME280;24578;48.264;11.436;2023-04-29T10:37:12;95912.31;;;26.09;44.94
13604;BME280;24578;48.264;11.436;2023-04-29T10:40:43;95918.16;;;27.06;39.93
13604;BME280;24578;48.264;11.436;2023-04-29T10:44:09;95915.41;;;27.13;40.20
13604;BME280;24578;48.264;11.436;2023-04-29T10:47:31;95917.06;;;26.07;42.14
13604;BME280;24578;48.264;11.436;2023-04-29T10:54:16;95917.09;;;25.36;43.83
13604;BME280;24578;48.264;11.436;2023-04-29T10:57:38;95920.75;;;24.97;43.31
13604;BME280;24578;48.264;11.436;2023-04-29T11:01:00;95925.31;;;23.68;45.29
13604;BME280;24578;48.264;11.436;2023-04-29T11:04:22;95919.22;;;23.61;45.38
13604;BME280;24578;48.264;11.436;2023-04-29T11:07:44;95908.41;;;25.22;41.97
13604;BME280;24578;48.264;11.436;2023-04-29T11:11:06;95901.66;;;26.41;39.35
13604;BME280;24578;48.264;11.436;2023-04-29T11:14:40;95906.06;;;26.29;39.29
13604;BME280;24578;48.264;11.436;2023-04-29T11:18:02;95905.97;;;24.62;42.25
13604;BME280;24578;48.264;11.436;2023-04-29T11:21:24;95905.81;;;24.30;42.08
13604;BME280;24578;48.264;11.436;2023-04-29T11:24:58;95904.69;;;24.91;41.12
13604;BME280;24578;48.264;11.436;2023-04-29T11:28:26;95910.50;;;23.67;43.64
13604;BME280;24578;48.264;11.436;2023-04-29T11:31:48;95907.06;;;24.07;42.48
13604;BME280;24578;48.264;11.436;2023-04-29T11:35:18;95928.97;;;23.61;42.82
13604;BME280;24578;48.264;11.436;2023-04-29T11:38:40;95937.25;;;22.89;45.87
13604;BME280;24578;48.264;11.436;2023-04-29T11:42:04;95927.94;;;22.58;44.41
13604;BME280;24578;48.264;11.436;2023-04-29T11:45:26;95924.09;;;23.78;42.17
13604;BME280;24578;48.264;11.436;2023-04-29T11:48:49;95936.88;;;23.54;41.95
13604;BME280;24578;48.264;11.436;2023-04-29T11:52:11;95933.06;;;24.51;40.45
13604;BME280;24578;48.264;11.436;2023-04-29T11:55:33;95931.84;;;25.64;38.07
13604;BME280;24578;48.264;11.436;2023-04-29T11:58:56;95922.53;;;26.12;37.30
13604;BME280;24578;48.264;11.436;2023-04-29T12:02:22;95928.28;;;26.53;37.09
13604;BME280;24578;48.264;11.436;2023-04-29T12:05:50;95929.34;;;26.27;36.65
13604;BME280;24578;48.264;11.436;2023-04-29T12:09:12;95934.56;;;25.83;38.49
13604;BME280;24578;48.264;11.436;2023-04-29T12:12:37;95930.72;;;25.79;38.05
13604;BME280;24578;48.264;11.436;2023-04-29T12:16:02;95933.53;;;26.60;35.69
13604;BME280;24578;48.264;11.436;2023-04-29T12:19:24;95930.34;;;25.43;37.84
13604;BME280;24578;48.264;11.436;2023-04-29T12:22:46;95934.31;;;25.59;38.04
13604;BME280;24578;48.264;11.436;2023-04-29T12:26:08;95933.63;;;25.71;37.23
13604;BME280;24578;48.264;11.436;2023-04-29T12:29:30;95920.59;;;25.69;36.79
13604;BME280;24578;48.264;11.436;2023-04-29T12:32:53;95923.94;;;25.58;38.46
13604;BME280;24578;48.264;11.436;2023-04-29T12:36:17;95921.88;;;25.92;38.01
13604;BME280;24578;48.264;11.436;2023-04-29T12:39:40;95926.28;;;26.49;37.49
13604;BME280;24578;48.264;11.436;2023-04-29T12:43:09;95922.22;;;25.70;36.05
13604;BME280;24578;48.264;11.436;2023-04-29T12:46:39;95934.09;;;25.15;37.27
13604;BME280;24578;48.264;11.436;2023-04-29T12:50:00;95932.06;;;25.17;37.84
13604;BME280;24578;48.264;11.436;2023-04-29T12:53:22;95929.91;;;25.46;36.76
13604;BME280;24578;48.264;11.436;2023-04-29T12:56:44;95932.84;;;25.95;35.09
13604;BME280;24578;48.264;11.436;2023-04-29T13:00:08;95918.44;;;26.79;33.17
13604;BME280;24578;48.264;11.436;2023-04-29T13:03:30;95929.88;;;27.29;34.09
13604;BME280;24578;48.264;11.436;2023-04-29T13:06:53;95933.53;;;26.60;33.97
13604;BME280;24578;48.264;11.436;2023-04-29T13:10:20;95928.47;;;26.33;34.38
13604;BME280;24578;48.264;11.436;2023-04-29T13:13:43;95922.59;;;25.74;33.87
13604;BME280;24578;48.264;11.436;2023-04-29T13:17:05;95929.91;;;24.94;34.54
13604;BME280;24578;48.264;11.436;2023-04-29T13:20:27;95929.38;;;25.24;35.59
13604;BME280;24578;48.264;11.436;2023-04-29T13:23:48;95922.59;;;25.42;35.78
13604;BME280;24578;48.264;11.436;2023-04-29T13:27:11;95924.25;;;26.69;33.49
13604;BME280;24578;48.264;11.436;2023-04-29T13:30:33;95926.38;;;27.16;32.08
13604;BME280;24578;48.264;11.436;2023-04-29T13:33:55;95909.91;;;28.59;30.25
13604;BME280;24578;48.264;11.436;2023-04-29T13:37:17;95927.56;;;29.00;30.49
13604;BME280;24578;48.264;11.436;2023-04-29T13:40:38;95922.19;;;28.60;30.45
13604;BME280;24578;48.264;11.436;2023-04-29T13:44:00;95927.78;;;27.80;33.31
13604;BME280;24578;48.264;11.436;2023-04-29T13:47:22;95929.63;;;27.79;33.36
13604;BME280;24578;48.264;11.436;2023-04-29T13:50:44;95927.06;;;28.15;32.50
13604;BME280;24578;48.264;11.436;2023-04-29T13:54:06;95929.41;;;27.93;32.60
13604;BME280;24578;48.264;11.436;2023-04-29T13:57:28;95932.38;;;27.42;34.80
13604;BME280;24578;48.264;11.436;2023-04-29T14:00:50;95931.34;;;28.16;33.89
13604;BME280;24578;48.264;11.436;2023-04-29T14:04:12;95934.81;;;28.52;32.58
13604;BME280;24578;48.264;11.436;2023-04-29T14:07:33;95924.78;;;30.11;28.74
13604;BME280;24578;48.264;11.436;2023-04-29T14:10:55;95932.22;;;29.34;30.14
13604;BME280;24578;48.264;11.436;2023-04-29T14:14:18;95925.13;;;27.92;32.04
13604;BME280;24578;48.264;11.436;2023-04-29T14:17:39;95936.91;;;27.23;32.19
13604;BME280;24578;48.264;11.436;2023-04-29T14:21:01;95942.53;;;25.51;36.14
13604;BME280;24578;48.264;11.436;2023-04-29T14:24:23;95947.91;;;24.72;37.85
13604;BME280;24578;48.264;11.436;2023-04-29T14:27:45;95951.53;;;23.63;40.15
13604;BME280;24578;48.264;11.436;2023-04-29T14:31:08;95954.88;;;23.23;42.17
13604;BME280;24578;48.264;11.436;2023-04-29T14:34:30;95956.09;;;22.50;42.80
13604;BME280;24578;48.264;11.436;2023-04-29T14:37:51;95967.41;;;21.94;44.88
13604;BME280;24578;48.264;11.436;2023-04-29T14:41:13;95967.59;;;21.93;44.87
13604;BME280;24578;48.264;11.436;2023-04-29T14:44:35;95978.97;;;22.21;44.27
13604;BME280;24578;48.264;11.436;2023-04-29T14:47:57;95973.91;;;21.98;44.16
13604;BME280;24578;48.264;11.436;2023-04-29T14:51:18;95977.94;;;21.21;45.79
13604;BME280;24578;48.264;11.436;2023-04-29T14:54:40;95984.97;;;20.83;47.23
13604;BME280;24578;48.264;11.436;2023-04-29T14:58:02;95991.66;;;20.56;48.08
13604;BME280;24578;48.264;11.436;2023-04-29T15:01:25;95989.63;;;20.05;50.69
13604;BME280;24578;48.264;11.436;2023-04-29T15:04:48;95992.53;;;19.87;52.56
13604;BME280;24578;48.264;11.436;2023-04-29T15:08:10;95997.47;;;19.58;51.66
13604;BME280;24578;48.264;11.436;2023-04-29T15:11:37;96004.28;;;19.44;52.86
13604;BME280;24578;48.264;11.436;2023-04-29T15:14:59;96009.06;;;18.84;56.37
13604;BME280;24578;48.264;11.436;2023-04-29T15:18:21;96006.16;;;18.71;56.88
13604;BME280;24578;48.264;11.436;2023-04-29T15:21:43;96003.53;;;18.63;57.69
13604;BME280;24578;48.264;11.436;2023-04-29T15:25:06;96006.69;;;18.50;59.21
13604;BME280;24578;48.264;11.436;2023-04-29T15:28:28;96024.06;;;18.18;58.09
13604;BME280;24578;48.264;11.436;2023-04-29T15:31:50;96007.38;;;18.10;60.07
13604;BME280;24578;48.264;11.436;2023-04-29T15:35:12;96018.00;;;18.17;59.77
13604;BME280;24578;48.264;11.436;2023-04-29T15:38:34;96022.59;;;18.07;60.60
13604;BME280;24578;48.264;11.436;2023-04-29T15:41:56;96026.69;;;18.01;60.69
13604;BME280;24578;48.264;11.436;2023-04-29T15:45:19;96022.28;;;18.10;60.24
13604;BME280;24578;48.264;11.436;2023-04-29T15:48:41;96026.03;;;17.99;59.73
13604;BME280;24578;48.264;11.436;2023-04-29T15:52:03;96024.69;;;17.95;61.42
13604;BME280;24578;48.264;11.436;2023-04-29T15:55:25;96029.41;;;17.83;64.52
13604;BME280;24578;48.264;11.436;2023-04-29T15:58:47;96035.63;;;17.74;66.05
13604;BME280;24578;48.264;11.436;2023-04-29T16:02:08;96034.63;;;17.67;62.13
13604;BME280;24578;48.264;11.436;2023-04-29T16:05:32;96044.88;;;17.60;62.73
13604;BME280;24578;48.264;11.436;2023-04-29T16:08:54;96047.97;;;17.47;64.64
13604;BME280;24578;48.264;11.436;2023-04-29T16:12:17;96055.09;;;17.28;64.53
13604;BME280;24578;48.264;11.436;2023-04-29T16:15:38;96058.97;;;17.16;66.84
13604;BME280;24578;48.264;11.436;2023-04-29T16:19:00;96065.09;;;16.98;68.63
13604;BME280;24578;48.264;11.436;2023-04-29T16:22:22;96068.84;;;16.78;69.05
13604;BME280;24578;48.264;11.436;2023-04-29T16:25:44;96071.31;;;16.53;70.02
13604;BME280;24578;48.264;11.436;2023-04-29T16:29:09;96069.06;;;16.58;69.99
13604;BME280;24578;48.264;11.436;2023-04-29T16:32:32;96077.97;;;16.47;71.52
13604;BME280;24578;48.264;11.436;2023-04-29T16:35:55;96077.88;;;16.57;72.19
13604;BME280;24578;48.264;11.436;2023-04-29T16:39:19;96080.25;;;16.68;72.01
13604;BME280;24578;48.264;11.436;2023-04-29T16:42:40;96085.28;;;16.88;72.74
13604;BME280;24578;48.264;11.436;2023-04-29T16:46:02;96082.97;;;16.85;74.94
13604;BME280;24578;48.264;11.436;2023-04-29T16:49:25;96082.56;;;16.71;77.64
13604;BME280;24578;48.264;11.436;2023-04-29T16:52:49;96090.78;;;16.58;83.15
13604;BME280;24578;48.264;11.436;2023-04-29T16:56:11;96098.66;;;16.40;83.84
13604;BME280;24578;48.264;11.436;2023-04-29T16:59:33;96099.56;;;16.13;85.99
13604;BME280;24578;48.264;11.436;2023-04-29T17:02:55;96103.97;;;15.84;86.05
13604;BME280;24578;48.264;11.436;2023-04-29T17:06:20;96102.81;;;15.69;88.96
13604;BME280;24578;48.264;11.436;2023-04-29T17:09:41;96105.44;;;15.69;90.88
13604;BME280;24578;48.264;11.436;2023-04-29T17:13:04;96108.53;;;15.55;95.17
13604;BME280;24578;48.264;11.436;2023-04-29T17:16:26;96114.19;;;15.50;98.21
13604;BME280;24578;48.264;11.436;2023-04-29T17:19:49;96120.88;;;15.25;97.95
13604;BME280;24578;48.264;11.436;2023-04-29T17:23:11;96124.81;;;15.01;98.24
13604;BME280;24578;48.264;11.436;2023-04-29T17:26:33;96130.84;;;14.91;98.46
13604;BME280;24578;48.264;11.436;2023-04-29T17:29:55;96141.69;;;14.87;99.16
13604;BME280;24578;48.264;11.436;2023-04-29T17:33:17;96149.09;;;14.72;98.36
13604;BME280;24578;48.264;11.436;2023-04-29T17:36:38;96143.91;;;14.52;100.00
13604;BME280;24578;48.264;11.436;2023-04-29T17:40:01;96146.22;;;14.45;99.88
13604;BME280;24578;48.264;11.436;2023-04-29T17:43:23;96152.38;;;14.35;100.00
13604;BME280;24578;48.264;11.436;2023-04-29T17:46:45;96154.72;;;14.28;100.00
13604;BME280;24578;48.264;11.436;2023-04-29T17:50:07;96160.88;;;14.17;100.00
13604;BME280;24578;48.264;11.436;2023-04-29T17:53:29;96161.81;;;14.06;100.00
13604;BME280;24578;48.264;11.436;2023-04-29T17:56:53;96164.38;;;13.96;100.00
13604;BME280;24578;48.264;11.436;2023-04-29T18:00:15;96160.44;;;13.92;100.00